createdAt,value
2019-02-06T00:02:26.881Z,16.45
2019-02-06T00:04:53.667Z,19.15
2019-02-06T00:07:20.475Z,16.35
2019-02-06T00:09:47.290Z,15.43
2019-02-06T00:12:14.059Z,14.25
2019-02-06T00:14:41.290Z,14.55
2019-02-06T00:17:08.009Z,15.75
2019-02-06T00:19:34.786Z,17.48
2019-02-06T00:22:01.493Z,15.28
2019-02-06T00:24:28.455Z,16.87
2019-02-06T00:26:55.167Z,14.73
2019-02-06T00:29:21.853Z,17.85
2019-02-06T00:31:48.559Z,15.23
2019-02-06T00:34:15.678Z,15.03
2019-02-06T00:36:42.386Z,17.00
2019-02-06T00:39:09.363Z,17.37
2019-02-06T00:41:36.158Z,18.23
2019-02-06T00:44:03.178Z,15.90
2019-02-06T00:46:30.100Z,16.02
2019-02-06T00:48:56.791Z,15.65
2019-02-06T00:51:23.479Z,16.35
2019-02-06T00:53:50.179Z,16.55
2019-02-06T00:56:16.976Z,17.50
2019-02-06T00:58:43.679Z,16.30
2019-02-06T01:01:10.579Z,16.42
2019-02-06T01:03:38.351Z,16.10
2019-02-06T01:06:05.273Z,18.05
2019-02-06T01:08:32.063Z,14.65
2019-02-06T01:11:00.107Z,14.90
2019-02-06T01:13:26.916Z,15.95
2019-02-06T01:15:53.626Z,15.40
2019-02-06T01:18:20.319Z,15.25
2019-02-06T01:20:47.112Z,15.35
2019-02-06T01:23:16.254Z,18.90
2019-02-06T01:25:42.525Z,16.67
2019-02-06T01:28:09.229Z,17.30
2019-02-06T01:30:46.619Z,17.05
2019-02-06T01:33:13.374Z,17.52
2019-02-06T01:35:49.436Z,16.87
2019-02-06T01:38:08.931Z,16.35
2019-02-06T01:40:35.627Z,20.17
2019-02-06T01:43:02.440Z,17.10
2019-02-06T01:45:29.236Z,18.32
2019-02-06T01:47:56.539Z,18.05
2019-02-06T01:50:23.231Z,15.55
2019-02-06T01:52:50.027Z,17.98
2019-02-06T01:55:16.827Z,17.27
2019-02-06T01:57:43.735Z,15.03
2019-02-06T02:00:14.408Z,14.38
2019-02-06T02:02:41.307Z,16.37
2019-02-06T02:05:08.220Z,17.30
2019-02-06T02:07:35.211Z,16.93
2019-02-06T02:10:03.028Z,15.85
2019-02-06T02:12:29.839Z,16.15
2019-02-06T02:14:56.642Z,16.97
2019-02-06T02:17:23.450Z,18.50
2019-02-06T02:19:50.243Z,14.87
2019-02-06T02:22:17.042Z,16.52
2019-02-06T02:24:44.242Z,17.37
2019-02-06T02:27:10.962Z,16.02
2019-02-06T02:29:37.658Z,15.60
2019-02-06T02:32:04.477Z,16.57
2019-02-06T02:34:31.171Z,17.23
2019-02-06T02:36:57.999Z,17.50
2019-02-06T02:39:24.704Z,14.23
2019-02-06T02:41:51.399Z,18.00
2019-02-06T02:44:18.600Z,15.13
2019-02-06T02:46:45.304Z,15.40
2019-02-06T02:49:12.068Z,14.10
2019-02-06T02:51:39.008Z,15.35
2019-02-06T02:54:05.713Z,13.68
2019-02-06T02:56:32.541Z,13.80
2019-02-06T02:58:59.252Z,14.85
2019-02-06T03:01:44.559Z,12.70
2019-02-06T03:04:19.824Z,17.85
2019-02-06T03:06:46.720Z,14.90
2019-02-06T03:09:13.422Z,14.18
2019-02-06T03:11:40.218Z,14.63
2019-02-06T03:14:06.928Z,16.00
2019-02-06T03:16:33.639Z,13.58
2019-02-06T03:19:00.431Z,14.18
2019-02-06T03:21:27.139Z,14.13
2019-02-06T03:23:53.830Z,14.70
2019-02-06T03:26:20.536Z,14.30
2019-02-06T03:28:47.235Z,12.80
2019-02-06T03:31:14.033Z,14.43
2019-02-06T03:33:40.829Z,14.87
2019-02-06T03:36:07.732Z,15.00
2019-02-06T03:38:34.555Z,15.80
2019-02-06T03:41:01.367Z,14.65
2019-02-06T03:43:28.068Z,15.40
2019-02-06T03:45:54.874Z,13.35
2019-02-06T03:48:21.566Z,13.53
2019-02-06T03:50:48.263Z,13.80
2019-02-06T03:53:14.966Z,13.95
2019-02-06T03:55:41.652Z,15.48
2019-02-06T03:58:08.368Z,16.05
2019-02-06T04:00:35.070Z,17.85
2019-02-06T04:03:01.871Z,15.15
2019-02-06T04:05:28.579Z,15.13
2019-02-06T04:07:55.283Z,13.80
2019-02-06T04:10:22.199Z,15.93
2019-02-06T04:12:48.912Z,15.32
2019-02-06T04:15:16.400Z,15.23
2019-02-06T04:17:43.215Z,14.68
2019-02-06T04:20:10.549Z,14.05
2019-02-06T04:22:37.348Z,14.53
2019-02-06T04:25:04.310Z,14.03
2019-02-06T04:27:31.007Z,14.50
2019-02-06T04:29:57.712Z,12.78
2019-02-06T04:32:25.228Z,12.10
2019-02-06T04:34:51.927Z,13.95
2019-02-06T04:37:18.635Z,14.13
2019-02-06T04:39:45.339Z,12.73
2019-02-06T04:42:12.276Z,12.55
2019-02-06T04:44:39.079Z,13.70
2019-02-06T04:47:05.783Z,13.85
2019-02-06T04:49:32.482Z,12.88
2019-02-06T04:51:59.771Z,13.78
2019-02-06T04:54:26.463Z,13.13
2019-02-06T04:56:53.169Z,12.55
2019-02-06T04:59:19.878Z,12.98
2019-02-06T05:01:46.571Z,12.78
2019-02-06T05:04:13.271Z,12.40
2019-02-06T05:06:39.984Z,14.87
2019-02-06T05:09:07.264Z,12.78
2019-02-06T05:11:34.574Z,11.73
2019-02-06T05:14:01.438Z,13.60
2019-02-06T05:16:28.245Z,13.38
2019-02-06T05:18:54.943Z,12.73
2019-02-06T05:21:21.636Z,13.68
2019-02-06T05:23:48.439Z,13.78
2019-02-06T05:26:15.134Z,12.78
2019-02-06T05:28:41.847Z,11.05
2019-02-06T05:31:08.848Z,13.65
2019-02-06T05:33:35.564Z,13.90
2019-02-06T05:36:02.282Z,11.80
2019-02-06T05:38:28.971Z,12.90
2019-02-06T05:40:55.679Z,11.55
2019-02-06T05:43:22.379Z,14.95
2019-02-06T05:45:49.087Z,11.78
2019-02-06T05:48:15.799Z,13.48
2019-02-06T05:50:42.487Z,12.80
2019-02-06T05:53:09.287Z,11.65
2019-02-06T05:55:36.195Z,12.58
2019-02-06T05:58:03.103Z,13.53
2019-02-06T06:00:42.722Z,12.78
2019-02-06T06:03:09.535Z,12.85
2019-02-06T06:05:36.436Z,12.63
2019-02-06T06:08:03.351Z,14.73
2019-02-06T06:10:30.060Z,11.93
2019-02-06T06:12:56.779Z,13.22
2019-02-06T06:15:23.489Z,12.93
2019-02-06T06:17:50.294Z,13.72
2019-02-06T06:20:17.236Z,12.73
2019-02-06T06:22:44.245Z,13.93
2019-02-06T06:25:12.248Z,13.05
2019-02-06T06:27:39.154Z,14.10
2019-02-06T06:30:12.031Z,14.03
2019-02-06T06:32:39.728Z,13.72
2019-02-06T06:35:08.311Z,12.05
2019-02-06T06:37:35.130Z,12.80
2019-02-06T06:40:02.465Z,13.03
2019-02-06T06:42:29.204Z,16.02
2019-02-06T06:44:55.911Z,13.65
2019-02-06T06:47:23.011Z,13.70
2019-02-06T06:49:49.715Z,15.25
2019-02-06T06:52:16.503Z,16.48
2019-02-06T06:54:43.192Z,15.05
2019-02-06T06:57:12.377Z,14.93
2019-02-06T06:59:38.553Z,13.20
2019-02-06T07:02:05.507Z,13.60
2019-02-06T07:04:32.702Z,14.73
2019-02-06T07:06:59.610Z,13.05
2019-02-06T07:09:26.311Z,13.95
2019-02-06T07:11:53.018Z,13.40
2019-02-06T07:14:19.731Z,12.75
2019-02-06T07:16:46.427Z,13.58
2019-02-06T07:19:13.228Z,13.05
2019-02-06T07:21:40.046Z,14.63
2019-02-06T07:24:07.450Z,14.50
2019-02-06T07:26:34.152Z,13.93
2019-02-06T07:29:00.868Z,14.75
2019-02-06T07:31:27.571Z,14.40
2019-02-06T07:33:54.380Z,12.50
2019-02-06T07:36:21.095Z,12.05
2019-02-06T07:38:47.805Z,14.83
2019-02-06T07:41:14.518Z,15.25
2019-02-06T07:43:41.723Z,12.13
2019-02-06T07:46:08.435Z,13.83
2019-02-06T07:48:35.151Z,16.30
2019-02-06T07:51:01.867Z,12.82
2019-02-06T07:53:28.559Z,17.02
2019-02-06T07:55:55.273Z,13.25
2019-02-06T07:58:21.975Z,14.05
2019-02-06T08:00:48.704Z,12.82
2019-02-06T08:03:15.807Z,13.00
2019-02-06T08:05:42.517Z,13.65
2019-02-06T08:08:09.332Z,13.13
2019-02-06T08:10:36.245Z,13.83
2019-02-06T08:13:04.506Z,13.60
2019-02-06T08:15:31.668Z,13.55
2019-02-06T08:17:58.581Z,13.08
2019-02-06T08:20:25.286Z,13.38
2019-02-06T08:22:53.112Z,13.32
2019-02-06T08:25:20.052Z,13.83
2019-02-06T08:27:46.904Z,14.10
2019-02-06T08:30:16.867Z,13.30
2019-02-06T08:32:43.659Z,13.38
2019-02-06T08:35:10.571Z,13.25
2019-02-06T08:37:37.391Z,13.58
2019-02-06T08:40:05.572Z,14.38
2019-02-06T08:42:32.279Z,13.47
2019-02-06T08:44:58.983Z,12.47
2019-02-06T08:47:25.758Z,14.40
2019-02-06T08:49:52.517Z,12.88
2019-02-06T08:52:19.215Z,12.47
2019-02-06T08:54:45.927Z,12.63
2019-02-06T08:57:12.753Z,13.45
2019-02-06T08:59:40.368Z,14.75
2019-02-06T09:02:07.449Z,14.07
2019-02-06T09:04:34.140Z,15.57
2019-02-06T09:07:00.952Z,15.60
2019-02-06T09:09:27.777Z,14.47
2019-02-06T09:11:54.567Z,16.37
2019-02-06T09:14:21.281Z,14.60
2019-02-06T09:16:47.966Z,13.60
2019-02-06T09:19:15.080Z,13.73
2019-02-06T09:21:41.783Z,14.93
2019-02-06T09:24:08.495Z,14.57
2019-02-06T09:26:36.277Z,15.30
2019-02-06T09:29:03.888Z,12.73
2019-02-06T09:31:30.595Z,12.37
2019-02-06T09:33:57.303Z,14.27
2019-02-06T09:36:24.009Z,13.37
2019-02-06T09:38:51.321Z,13.20
2019-02-06T09:41:18.016Z,13.13
2019-02-06T09:43:44.719Z,13.37
2019-02-06T09:46:11.419Z,13.40
2019-02-06T09:48:38.119Z,12.77
2019-02-06T09:51:05.028Z,11.80
2019-02-06T09:53:31.719Z,16.63
2019-02-06T09:55:58.529Z,14.93
2019-02-06T09:58:25.331Z,14.70
2019-02-06T10:00:52.046Z,12.40
2019-02-06T10:03:19.130Z,15.00
2019-02-06T10:05:45.958Z,13.63
2019-02-06T10:08:12.767Z,13.73
2019-02-06T10:10:39.467Z,13.67
2019-02-06T10:13:06.194Z,15.20
2019-02-06T10:15:34.625Z,14.40
2019-02-06T10:18:01.941Z,13.67
2019-02-06T10:20:31.315Z,12.80
2019-02-06T10:22:58.393Z,13.17
2019-02-06T10:25:25.648Z,13.30
2019-02-06T10:27:52.448Z,14.90
2019-02-06T10:30:42.104Z,13.97
2019-02-06T10:33:09.091Z,12.73
2019-02-06T10:35:35.903Z,11.77
2019-02-06T10:38:03.219Z,13.00
2019-02-06T10:40:30.124Z,12.23
2019-02-06T10:42:57.036Z,17.70
2019-02-06T10:45:23.964Z,13.07
2019-02-06T10:47:51.260Z,14.93
2019-02-06T10:50:20.163Z,12.27
2019-02-06T10:52:48.336Z,12.83
2019-02-06T10:55:15.916Z,12.83
2019-02-06T10:57:43.338Z,13.70
2019-02-06T11:00:15.263Z,13.07
2019-02-06T11:02:42.171Z,11.30
2019-02-06T11:05:10.139Z,12.60
2019-02-06T11:07:36.872Z,14.47
2019-02-06T11:10:04.821Z,13.30
2019-02-06T11:12:31.640Z,13.47
2019-02-06T11:14:58.366Z,12.83
2019-02-06T11:17:25.075Z,11.83
2019-02-06T11:19:51.792Z,11.97
2019-02-06T11:22:18.859Z,11.57
2019-02-06T11:24:45.963Z,12.23
2019-02-06T11:27:13.006Z,12.03
2019-02-06T11:29:39.713Z,13.03
2019-02-06T11:32:06.623Z,11.63
2019-02-06T11:34:33.429Z,12.17
2019-02-06T11:37:00.241Z,11.97
2019-02-06T11:39:26.947Z,14.90
2019-02-06T11:41:53.659Z,13.13
2019-02-06T11:44:20.676Z,14.27
2019-02-06T11:46:47.475Z,11.40
2019-02-06T11:49:15.479Z,11.73
2019-02-06T11:51:42.187Z,12.63
2019-02-06T11:54:08.979Z,13.10
2019-02-06T11:56:35.683Z,13.03
2019-02-06T11:59:02.504Z,14.60
2019-02-06T12:01:33.142Z,13.50
2019-02-06T12:03:59.867Z,12.00
2019-02-06T12:06:26.768Z,11.80
2019-02-06T12:08:53.484Z,14.50
2019-02-06T12:11:20.186Z,13.43
2019-02-06T12:13:47.000Z,13.57
2019-02-06T12:16:13.818Z,12.10
2019-02-06T12:18:40.740Z,13.03
2019-02-06T12:21:08.255Z,12.20
2019-02-06T12:23:35.067Z,14.53
2019-02-06T12:26:02.075Z,12.07
2019-02-06T12:28:28.764Z,11.03
2019-02-06T12:30:56.232Z,11.40
2019-02-06T12:33:23.200Z,12.03
2019-02-06T12:35:49.909Z,12.23
2019-02-06T12:38:16.611Z,14.60
2019-02-06T12:40:44.583Z,11.57
2019-02-06T12:43:11.299Z,14.10
2019-02-06T12:45:38.216Z,12.40
2019-02-06T12:48:05.728Z,12.27
2019-02-06T12:50:32.539Z,13.17
2019-02-06T12:52:59.362Z,12.70
2019-02-06T12:55:28.699Z,11.70
2019-02-06T12:57:55.610Z,12.30
2019-02-06T13:00:24.699Z,11.23
2019-02-06T13:02:51.903Z,11.30
2019-02-06T13:05:18.823Z,11.93
2019-02-06T13:07:45.738Z,12.23
2019-02-06T13:10:12.943Z,13.30
2019-02-06T13:12:39.739Z,16.13
2019-02-06T13:15:08.507Z,13.33
2019-02-06T13:17:35.623Z,12.70
2019-02-06T13:20:03.947Z,10.93
2019-02-06T13:22:30.663Z,12.80
2019-02-06T13:24:57.375Z,12.57
2019-02-06T13:27:24.083Z,13.00
2019-02-06T13:29:50.777Z,12.80
2019-02-06T13:32:17.483Z,11.45
2019-02-06T13:34:44.191Z,11.80
2019-02-06T13:37:10.899Z,11.30
2019-02-06T13:39:37.707Z,11.63
2019-02-06T13:42:05.496Z,12.75
2019-02-06T13:44:32.523Z,13.30
2019-02-06T13:46:59.263Z,12.10
2019-02-06T13:49:25.973Z,12.43
2019-02-06T13:51:52.819Z,12.57
2019-02-06T13:54:19.531Z,12.70
2019-02-06T13:56:46.245Z,11.27
2019-02-06T13:59:13.347Z,11.50
2019-02-06T14:01:40.080Z,11.97
2019-02-06T14:04:06.787Z,11.80
2019-02-06T14:06:34.092Z,13.00
2019-02-06T14:09:00.819Z,11.47
2019-02-06T14:11:27.716Z,11.27
2019-02-06T14:13:54.515Z,11.40
2019-02-06T14:16:21.227Z,11.20
2019-02-06T14:18:48.331Z,11.17
2019-02-06T14:21:15.131Z,12.13
2019-02-06T14:24:01.311Z,9.90
2019-02-06T14:26:50.537Z,12.27
2019-02-06T14:29:30.387Z,11.80
2019-02-06T14:32:53.444Z,10.80
2019-02-06T14:35:28.831Z,9.65
2019-02-06T14:38:09.160Z,10.00
2019-02-06T14:41:14.249Z,18.73
2019-02-06T14:44:40.873Z,9.35
2019-02-06T14:47:41.987Z,9.83
2019-02-06T14:50:56.759Z,8.27
2019-02-06T14:54:13.608Z,7.67
2019-02-06T14:57:03.490Z,7.63
2019-02-06T15:00:05.983Z,9.20
2019-02-06T15:03:05.908Z,8.63
2019-02-06T15:05:53.251Z,7.67
2019-02-06T15:08:29.675Z,7.60
2019-02-06T15:11:19.769Z,8.00
2019-02-06T15:14:12.607Z,8.23
2019-02-06T15:17:15.979Z,6.47
2019-02-06T15:20:05.392Z,8.03
2019-02-06T15:23:03.668Z,8.90
2019-02-06T15:26:01.495Z,9.87
2019-02-06T15:28:57.403Z,7.10
2019-02-06T15:31:53.347Z,6.87
2019-02-06T15:34:46.567Z,7.30
2019-02-06T15:37:45.136Z,8.03
2019-02-06T15:40:40.857Z,5.50
2019-02-06T15:43:35.955Z,9.05
2019-02-06T15:46:48.155Z,5.90
2019-02-06T15:50:00.315Z,6.43
2019-02-06T15:52:50.256Z,9.35
2019-02-06T15:56:02.199Z,7.27
2019-02-06T15:59:07.508Z,6.10
2019-02-06T16:01:46.259Z,6.45
2019-02-06T16:05:17.220Z,7.23
2019-02-06T16:08:29.304Z,4.90
2019-02-06T16:11:22.123Z,8.03
2019-02-06T16:14:19.155Z,7.83
2019-02-06T16:17:10.527Z,5.83
2019-02-06T16:20:08.995Z,5.30
2019-02-06T16:22:42.372Z,6.10
2019-02-06T16:25:41.437Z,6.50
2019-02-06T16:28:19.175Z,5.45
2019-02-06T16:31:12.229Z,5.47
2019-02-06T16:34:07.371Z,6.37
2019-02-06T16:37:16.360Z,4.87
2019-02-06T16:40:11.262Z,6.93
2019-02-06T16:43:24.851Z,5.10
2019-02-06T16:46:11.732Z,6.03
2019-02-06T16:48:56.612Z,8.43
2019-02-06T16:51:50.341Z,9.50
2019-02-06T16:54:55.155Z,5.33
2019-02-06T16:57:34.147Z,5.13
2019-02-06T17:01:07.422Z,5.73
2019-02-06T17:04:07.959Z,5.90
2019-02-06T17:07:08.395Z,4.87
2019-02-06T17:10:13.633Z,5.30
2019-02-06T17:13:14.768Z,4.53
2019-02-06T17:16:19.435Z,6.67
2019-02-06T17:19:22.630Z,5.83
2019-02-06T17:22:27.184Z,5.33
2019-02-06T17:25:31.549Z,10.30
2019-02-06T17:28:14.904Z,5.60
2019-02-06T17:31:14.899Z,6.30
2019-02-06T17:34:19.785Z,5.87
2019-02-06T17:37:00.839Z,5.33
2019-02-06T17:40:11.519Z,5.93
2019-02-06T17:43:28.947Z,7.70
2019-02-06T17:46:35.462Z,6.00
2019-02-06T17:49:47.551Z,6.17
2019-02-06T17:52:52.926Z,7.47
2019-02-06T17:55:24.064Z,5.27
2019-02-06T17:57:57.439Z,8.30
2019-02-06T18:00:50.980Z,7.00
2019-02-06T18:03:17.936Z,5.57
2019-02-06T18:05:45.747Z,6.73
2019-02-06T18:08:12.559Z,6.53
2019-02-06T18:10:39.399Z,7.13
2019-02-06T18:13:06.735Z,6.27
2019-02-06T18:15:33.566Z,8.10
2019-02-06T18:18:03.243Z,6.93
2019-02-06T18:20:29.939Z,8.80
2019-02-06T18:22:57.146Z,7.83
2019-02-06T18:25:23.957Z,9.27
2019-02-06T18:27:50.763Z,6.53
2019-02-06T18:30:19.214Z,10.23
2019-02-06T18:32:45.951Z,8.27
2019-02-06T18:35:13.275Z,9.77
2019-02-06T18:37:43.264Z,9.07
2019-02-06T18:40:10.572Z,8.40
2019-02-06T18:42:38.409Z,8.50
2019-02-06T18:45:10.027Z,9.43
2019-02-06T18:47:36.758Z,10.10
2019-02-06T18:50:05.881Z,10.20
2019-02-06T18:52:32.856Z,15.23
2019-02-06T18:54:59.803Z,9.13
2019-02-06T18:57:26.616Z,8.47
2019-02-06T18:59:53.411Z,10.13
2019-02-06T19:02:20.359Z,10.30
2019-02-06T19:04:47.372Z,9.30
2019-02-06T19:07:14.512Z,9.70
2019-02-06T19:09:41.663Z,7.83
2019-02-06T19:12:08.820Z,7.47
2019-02-06T19:14:38.542Z,9.95
2019-02-06T19:17:05.473Z,8.87
2019-02-06T19:19:32.321Z,8.83
2019-02-06T19:21:59.267Z,8.95
2019-02-06T19:24:26.139Z,9.83
2019-02-06T19:26:52.917Z,10.30
2019-02-06T19:29:19.923Z,11.17
2019-02-06T19:31:46.771Z,8.80
2019-02-06T19:34:13.707Z,10.20
2019-02-06T19:36:40.971Z,10.77
2019-02-06T19:39:08.287Z,12.17
2019-02-06T19:41:35.032Z,14.00
2019-02-06T19:44:01.870Z,10.13
2019-02-06T19:46:29.299Z,13.15
2019-02-06T19:48:56.199Z,13.73
2019-02-06T19:51:23.658Z,11.90
2019-02-06T19:53:50.517Z,12.10
2019-02-06T19:56:17.513Z,14.20
2019-02-06T19:58:44.319Z,12.70
2019-02-06T20:01:11.490Z,13.60
2019-02-06T20:03:38.336Z,15.33
2019-02-06T20:06:05.731Z,14.70
2019-02-06T20:08:32.909Z,12.13
2019-02-06T20:10:59.848Z,12.20
2019-02-06T20:13:26.683Z,14.30
2019-02-06T20:15:54.047Z,13.40
2019-02-06T20:18:20.815Z,15.27
2019-02-06T20:20:47.628Z,17.10
2019-02-06T20:23:14.573Z,13.87
2019-02-06T20:25:41.439Z,14.77
2019-02-06T20:28:08.421Z,12.43
2019-02-06T20:30:35.360Z,13.17
2019-02-06T20:33:02.334Z,15.63
2019-02-06T20:35:29.330Z,14.93
2019-02-06T20:37:56.896Z,14.77
2019-02-06T20:40:31.880Z,12.90
2019-02-06T20:42:58.767Z,13.33
2019-02-06T20:45:25.890Z,15.03
2019-02-06T20:47:52.890Z,15.03
2019-02-06T20:50:24.919Z,16.25
2019-02-06T20:52:51.751Z,17.33
2019-02-06T20:55:20.059Z,14.70
2019-02-06T20:57:47.339Z,14.33
2019-02-06T21:00:25.874Z,16.77
2019-02-06T21:02:52.639Z,18.00
2019-02-06T21:05:19.371Z,15.47
2019-02-06T21:07:46.414Z,18.37
2019-02-06T21:10:16.211Z,18.30
2019-02-06T21:12:43.175Z,16.93
2019-02-06T21:15:10.404Z,16.67
2019-02-06T21:17:37.143Z,17.93
2019-02-06T21:20:06.463Z,16.73
2019-02-06T21:22:33.180Z,17.53
2019-02-06T21:24:59.887Z,17.90
2019-02-06T21:27:26.843Z,18.03
2019-02-06T21:29:53.972Z,16.70
2019-02-06T21:32:21.215Z,18.40
2019-02-06T21:34:48.176Z,18.07
2019-02-06T21:37:17.512Z,17.83
2019-02-06T21:39:44.219Z,18.27
2019-02-06T21:42:10.935Z,19.90
2019-02-06T21:44:37.645Z,18.07
2019-02-06T21:47:04.457Z,20.57
2019-02-06T21:49:31.188Z,17.07
2019-02-06T21:51:57.983Z,19.80
2019-02-06T21:54:24.807Z,18.83
2019-02-06T21:56:51.519Z,17.37
2019-02-06T21:59:18.741Z,19.37
2019-02-06T22:01:45.432Z,16.70
2019-02-06T22:04:12.194Z,17.80
2019-02-06T22:06:40.227Z,20.40
2019-02-06T22:09:10.178Z,18.57
2019-02-06T22:11:36.975Z,17.57
2019-02-06T22:14:04.716Z,21.30
2019-02-06T22:16:31.443Z,20.00
2019-02-06T22:18:58.244Z,20.53
2019-02-06T22:21:25.047Z,20.10
2019-02-06T22:23:52.367Z,20.53
2019-02-06T22:26:19.072Z,19.90
2019-02-06T22:28:46.180Z,18.57
2019-02-06T22:31:12.883Z,23.20
2019-02-06T22:33:39.611Z,20.57
2019-02-06T22:36:06.432Z,17.47
2019-02-06T22:38:42.451Z,17.07
2019-02-06T22:41:09.455Z,20.67
2019-02-06T22:43:36.168Z,17.80
2019-02-06T22:46:04.479Z,19.50
2019-02-06T22:48:31.203Z,21.17
2019-02-06T22:50:58.007Z,18.30
2019-02-06T22:53:24.706Z,20.93
2019-02-06T22:55:51.422Z,19.23
2019-02-06T22:58:18.415Z,22.57
2019-02-06T23:01:16.758Z,24.57
2019-02-06T23:03:45.128Z,20.53
2019-02-06T23:06:12.098Z,21.53
2019-02-06T23:08:39.307Z,21.70
2019-02-06T23:11:06.211Z,21.60
2019-02-06T23:13:32.926Z,24.10
2019-02-06T23:15:59.730Z,23.00
2019-02-06T23:18:26.854Z,23.57
2019-02-06T23:20:53.555Z,28.03
2019-02-06T23:23:20.360Z,21.97
2019-02-06T23:25:47.253Z,24.07
2019-02-06T23:28:13.963Z,29.40
2019-02-06T23:30:40.763Z,21.00
2019-02-06T23:33:07.472Z,22.10
2019-02-06T23:35:34.552Z,22.73
2019-02-06T23:38:01.251Z,21.50
2019-02-06T23:40:28.056Z,25.43
2019-02-06T23:42:54.851Z,20.30
2019-02-06T23:45:22.543Z,24.33
2019-02-06T23:47:49.257Z,23.20
2019-02-06T23:50:16.171Z,21.70
2019-02-06T23:52:43.071Z,20.20
2019-02-06T23:55:10.168Z,21.83
2019-02-06T23:57:37.075Z,24.13
